Startpagina
METAR-TAF:

METAR-TAF

Vliegvelden :

Chimoio, Mozambique

breedte: 19-07S, lengte: 033-28E, hoogte: 731 m

Actueel weer

Dit bericht is 56 minuten geleden gemaakt, om 12:00 UTC
Temperatuur 29°C
Vochtigheid 58%
Druk 1018 hPa
Zicht 10 km of meer
Gebroken wolken op 1500 ft
Weinig wolken op 2000 ft, Cumulonimbus.

METAR: FQCH 191200Z /////KT 9999 BKN015 FEW020CB 29/20 Q1018 RMK CB TO SW

Tijdstip: 14:56 (12:56 UTC)

Verwachting

Dit bericht is 2 uur en het 56 minuten geleden gemaakt, om 10:00 UTC
Verwachting geldig van 19 om 12 UTC tot 20 om 12 UTC
Wind 12 kt uit het oosten
Zicht 10 km of meer
Gebroken wolken op 1500 ft
Wijzigt naar
van 19 om 18 UTC tot 19 om 20 UTC
Wind 8 kt uit het zuidwesten

TAF: FQCH 191000Z 1912/2012 08012KT 9999 BKN015 TX29/1913Z TN21/2003Z BECMG 1918/1920 22008KT BEC CHECK TEXT NEW ENDING ADDED LFLFYFYX

Waarnemingen en weersverwachtingen van meer dan 4000 vliegvelden (METAR en TAF).

De beschikbare stations zijn de gele en rode punten op de kaart.

Ga met uw muis naar het station om de naam te zien.

Klik dan om waarnemingen en weersverwachtingen te zien.

kaart wijzigen: klik op de groene knoppen met een zwart kruis om in te zoomen, op de groene knop met een streepje om uit te zoomen of op de groene pijlen voor aangrenzende kaarten.


METAR-TAF: